createdAt,value
2023-01-13T00:01:50.084Z,4.43
2023-01-13T00:03:55.350Z,2.88
2023-01-13T00:06:02.869Z,4.45
2023-01-13T00:08:08.721Z,4.82
2023-01-13T00:10:14.845Z,4.60
2023-01-13T00:12:20.253Z,4.25
2023-01-13T00:14:30.293Z,5.15
2023-01-13T00:16:35.704Z,3.78
2023-01-13T00:18:41.137Z,7.05
2023-01-13T00:20:46.173Z,4.70
2023-01-13T00:22:51.250Z,6.10
2023-01-13T00:24:58.342Z,5.03
2023-01-13T00:27:04.100Z,4.20
2023-01-13T00:29:09.280Z,6.95
2023-01-13T00:31:20.788Z,5.18
2023-01-13T00:33:26.025Z,6.60
2023-01-13T00:35:31.501Z,3.65
2023-01-13T00:37:41.265Z,5.47
2023-01-13T00:39:46.571Z,8.60
2023-01-13T00:42:04.155Z,4.78
2023-01-13T00:44:09.215Z,5.57
2023-01-13T00:46:19.650Z,7.85
2023-01-13T00:48:26.436Z,2.65
2023-01-13T00:50:31.540Z,4.22
2023-01-13T00:52:37.297Z,5.38
2023-01-13T00:54:42.915Z,6.20
2023-01-13T00:56:48.013Z,5.47
2023-01-13T00:58:53.643Z,8.02
2023-01-13T01:01:03.437Z,8.10
2023-01-13T01:03:12.489Z,4.72
2023-01-13T01:05:17.779Z,8.18
2023-01-13T01:07:23.632Z,8.65
2023-01-13T01:09:33.134Z,5.35
2023-01-13T01:11:38.737Z,5.90
2023-01-13T01:13:44.933Z,8.48
2023-01-13T01:15:50.133Z,5.50
2023-01-13T01:17:55.791Z,4.40
2023-01-13T01:20:03.733Z,5.78
2023-01-13T01:22:08.815Z,3.75
2023-01-13T01:24:14.094Z,4.95
2023-01-13T01:26:22.272Z,3.13
2023-01-13T01:28:27.361Z,5.88
2023-01-13T01:30:33.176Z,5.38
2023-01-13T01:32:38.809Z,5.00
2023-01-13T01:34:43.902Z,7.68
2023-01-13T01:36:52.176Z,2.35
2023-01-13T01:39:00.396Z,4.82
2023-01-13T01:41:06.429Z,8.80
2023-01-13T01:43:30.889Z,6.38
2023-01-13T01:45:36.334Z,4.40
2023-01-13T01:47:42.562Z,5.65
2023-01-13T01:49:48.821Z,3.40
2023-01-13T01:52:03.168Z,5.22
2023-01-13T01:54:12.550Z,4.43
2023-01-13T01:56:20.335Z,7.30
2023-01-13T01:58:31.110Z,4.20
2023-01-13T02:00:36.540Z,2.95
2023-01-13T02:02:43.072Z,5.43
2023-01-13T02:04:54.659Z,6.85
2023-01-13T02:07:03.059Z,3.45
2023-01-13T02:09:08.407Z,3.92
2023-01-13T02:11:45.750Z,3.75
2023-01-13T02:13:51.302Z,4.50
2023-01-13T02:16:06.375Z,5.90
2023-01-13T02:18:54.196Z,3.42
2023-01-13T02:21:44.170Z,5.68
2023-01-13T02:24:51.727Z,2.92
2023-01-13T02:27:39.597Z,3.67
2023-01-13T02:30:21.517Z,2.80
2023-01-13T02:32:34.523Z,4.32
2023-01-13T02:34:45.211Z,4.07
2023-01-13T02:37:00.216Z,5.47
2023-01-13T02:39:13.694Z,3.47
2023-01-13T02:41:39.764Z,2.72
2023-01-13T02:43:58.569Z,2.67
2023-01-13T02:46:14.589Z,4.40
2023-01-13T02:48:21.956Z,5.18
2023-01-13T02:50:32.038Z,3.45
2023-01-13T02:52:43.071Z,5.63
2023-01-13T02:54:54.864Z,3.78
2023-01-13T02:57:03.902Z,5.20
2023-01-13T02:59:11.153Z,3.78
2023-01-13T03:01:19.031Z,3.38
2023-01-13T03:03:24.258Z,2.55
2023-01-13T03:05:29.382Z,3.28
2023-01-13T03:08:11.533Z,4.43
2023-01-13T03:10:34.460Z,2.15
2023-01-13T03:12:53.002Z,1.60
2023-01-13T03:15:07.167Z,3.53
2023-01-13T03:17:34.495Z,4.18
2023-01-13T03:19:47.095Z,1.35
2023-01-13T03:21:58.551Z,1.77
2023-01-13T03:24:09.509Z,3.40
2023-01-13T03:26:22.114Z,2.88
2023-01-13T03:28:32.879Z,1.73
2023-01-13T03:30:44.177Z,5.18
2023-01-13T03:32:56.851Z,1.60
2023-01-13T03:35:11.854Z,3.15
2023-01-13T03:37:19.786Z,4.18
2023-01-13T03:39:32.313Z,5.22
2023-01-13T03:41:41.763Z,2.92
2023-01-13T03:44:05.634Z,2.30
2023-01-13T03:46:17.672Z,2.47
2023-01-13T03:48:29.083Z,2.58
2023-01-13T03:50:43.327Z,2.67
2023-01-13T03:52:54.699Z,2.00
2023-01-13T03:55:06.173Z,2.15
2023-01-13T03:57:16.319Z,4.18
2023-01-13T03:59:27.061Z,3.55
2023-01-13T04:01:39.461Z,0.95
2023-01-13T04:03:57.763Z,5.18
2023-01-13T04:06:15.066Z,2.95
2023-01-13T04:08:24.718Z,4.45
2023-01-13T04:10:36.296Z,2.47
2023-01-13T04:13:04.361Z,2.50
2023-01-13T04:15:12.259Z,5.38
2023-01-13T04:17:18.168Z,4.60
2023-01-13T04:19:25.660Z,2.80
2023-01-13T04:21:31.121Z,2.67
2023-01-13T04:23:36.040Z,3.28
2023-01-13T04:25:41.867Z,2.15
2023-01-13T04:27:47.090Z,1.55
2023-01-13T04:29:51.968Z,1.60
2023-01-13T04:31:56.824Z,1.55
2023-01-13T04:34:01.692Z,3.60
2023-01-13T04:36:10.145Z,4.25
2023-01-13T04:38:17.472Z,1.35
2023-01-13T04:40:22.590Z,2.63
2023-01-13T04:42:27.464Z,0.77
2023-01-13T04:44:35.702Z,2.97
2023-01-13T04:46:40.527Z,5.70
2023-01-13T04:48:45.403Z,3.55
2023-01-13T04:50:50.246Z,2.30
2023-01-13T04:52:58.030Z,3.05
2023-01-13T04:55:02.898Z,2.42
2023-01-13T04:57:07.752Z,3.58
2023-01-13T04:59:13.163Z,3.38
2023-01-13T05:01:18.074Z,2.38
2023-01-13T05:03:24.392Z,2.22
2023-01-13T05:05:30.242Z,5.50
2023-01-13T05:07:35.620Z,2.65
2023-01-13T05:09:43.053Z,1.25
2023-01-13T05:12:00.427Z,3.90
2023-01-13T05:14:17.745Z,3.42
2023-01-13T05:16:35.316Z,3.55
2023-01-13T05:18:40.510Z,1.63
2023-01-13T05:20:45.392Z,3.72
2023-01-13T05:23:03.043Z,5.43
2023-01-13T05:25:21.724Z,3.90
2023-01-13T05:27:26.971Z,1.10
2023-01-13T05:29:31.883Z,3.50
2023-01-13T05:31:37.214Z,3.58
2023-01-13T05:33:42.072Z,0.65
2023-01-13T05:35:49.533Z,1.17
2023-01-13T05:37:54.818Z,2.78
2023-01-13T05:40:12.617Z,5.07
2023-01-13T05:42:32.937Z,1.08
2023-01-13T05:44:37.854Z,0.82
2023-01-13T05:46:43.177Z,2.50
2023-01-13T05:48:48.206Z,3.30
2023-01-13T05:50:54.365Z,2.58
2023-01-13T05:52:59.195Z,1.55
2023-01-13T05:55:04.240Z,1.10
2023-01-13T05:57:09.600Z,0.25
2023-01-13T05:59:17.081Z,3.83
2023-01-13T06:01:22.517Z,0.20
2023-01-13T06:03:27.425Z,1.10
2023-01-13T06:05:33.700Z,0.95
2023-01-13T06:07:38.556Z,0.00
2023-01-13T06:09:44.128Z,1.90
2023-01-13T06:11:49.466Z,0.35
2023-01-13T06:13:54.339Z,1.85
2023-01-13T06:16:02.484Z,0.68
2023-01-13T06:18:08.654Z,2.38
2023-01-13T06:20:15.191Z,4.97
2023-01-13T06:22:24.815Z,0.70
2023-01-13T06:24:29.670Z,0.32
2023-01-13T06:26:39.582Z,2.15
2023-01-13T06:28:44.814Z,1.15
2023-01-13T06:30:52.945Z,1.20
2023-01-13T06:33:04.471Z,2.50
2023-01-13T06:35:14.657Z,3.17
2023-01-13T06:37:25.661Z,1.20
2023-01-13T06:39:32.612Z,2.30
2023-01-13T06:41:50.426Z,2.00
2023-01-13T06:43:55.308Z,2.63
2023-01-13T06:46:00.247Z,2.95
2023-01-13T06:48:09.186Z,2.10
2023-01-13T06:50:14.557Z,1.45
2023-01-13T06:52:19.814Z,2.75
2023-01-13T06:54:27.651Z,5.95
2023-01-13T06:56:32.873Z,2.08
2023-01-13T06:58:38.509Z,1.00
2023-01-13T07:00:43.797Z,0.82
2023-01-13T07:02:49.244Z,4.03
2023-01-13T07:04:56.800Z,2.50
2023-01-13T07:07:02.743Z,2.17
2023-01-13T07:09:07.614Z,1.85
2023-01-13T07:11:12.541Z,1.38
2023-01-13T07:13:30.452Z,1.95
2023-01-13T07:15:35.780Z,6.82
2023-01-13T07:17:41.098Z,4.82
2023-01-13T07:19:45.950Z,2.30
2023-01-13T07:21:54.291Z,0.88
2023-01-13T07:24:00.243Z,4.13
2023-01-13T07:26:20.183Z,1.67
2023-01-13T07:28:25.087Z,3.35
2023-01-13T07:30:30.003Z,1.23
2023-01-13T07:32:35.614Z,3.33
2023-01-13T07:34:40.537Z,5.60
2023-01-13T07:36:45.472Z,8.10
2023-01-13T07:38:54.899Z,5.63
2023-01-13T07:41:20.142Z,2.58
2023-01-13T07:43:34.915Z,2.85
2023-01-13T07:45:39.862Z,2.75
2023-01-13T07:47:45.220Z,7.95
2023-01-13T07:49:50.361Z,3.13
2023-01-13T07:51:55.274Z,4.32
2023-01-13T07:54:02.774Z,5.40
2023-01-13T07:56:10.633Z,3.53
2023-01-13T07:58:15.723Z,1.67
2023-01-13T08:00:22.565Z,4.47
2023-01-13T08:02:28.941Z,4.22
2023-01-13T08:04:34.140Z,4.90
2023-01-13T08:06:39.220Z,4.28
2023-01-13T08:08:44.517Z,3.72
2023-01-13T08:10:51.968Z,4.60
2023-01-13T08:13:09.733Z,3.30
2023-01-13T08:15:15.200Z,5.15
2023-01-13T08:17:20.667Z,3.70
2023-01-13T08:19:25.706Z,7.22
2023-01-13T08:21:31.402Z,5.70
2023-01-13T08:23:36.365Z,11.65
2023-01-13T08:25:41.822Z,8.57
2023-01-13T08:27:51.190Z,6.20
2023-01-13T08:29:56.126Z,9.15
2023-01-13T08:32:01.428Z,5.38
2023-01-13T08:34:06.301Z,4.85
2023-01-13T08:36:14.754Z,6.88
2023-01-13T08:38:19.613Z,7.43
2023-01-13T08:40:25.295Z,5.47
2023-01-13T08:42:31.016Z,6.38
2023-01-13T08:44:39.181Z,4.95
2023-01-13T08:46:45.061Z,6.20
2023-01-13T08:48:50.501Z,5.38
2023-01-13T08:50:55.936Z,4.70
2023-01-13T08:53:00.890Z,14.90
2023-01-13T08:55:06.571Z,8.52
2023-01-13T08:57:12.532Z,3.75
2023-01-13T08:59:18.576Z,5.10
2023-01-13T09:01:26.801Z,11.65
2023-01-13T09:03:31.808Z,8.75
2023-01-13T09:05:38.793Z,3.20
2023-01-13T09:07:43.714Z,3.53
2023-01-13T09:09:48.963Z,3.90
2023-01-13T09:12:07.179Z,5.45
2023-01-13T09:14:12.115Z,4.53
2023-01-13T09:16:17.343Z,4.03
2023-01-13T09:18:24.940Z,6.07
2023-01-13T09:20:30.487Z,5.20
2023-01-13T09:22:37.543Z,10.30
2023-01-13T09:24:42.580Z,3.22
2023-01-13T09:26:47.833Z,5.78
2023-01-13T09:28:52.685Z,6.90
2023-01-13T09:30:57.601Z,7.82
2023-01-13T09:33:15.852Z,6.47
2023-01-13T09:35:23.339Z,4.85
2023-01-13T09:37:29.239Z,5.60
2023-01-13T09:39:35.730Z,5.45
2023-01-13T09:41:59.515Z,5.07
2023-01-13T09:44:05.398Z,5.63
2023-01-13T09:46:31.132Z,22.23
2023-01-13T09:48:52.456Z,7.82
2023-01-13T09:51:10.104Z,6.78
2023-01-13T09:53:24.353Z,4.65
2023-01-13T09:55:37.375Z,3.33
2023-01-13T09:57:42.716Z,4.80
2023-01-13T09:59:48.239Z,2.33
2023-01-13T10:01:59.558Z,4.30
2023-01-13T10:04:09.198Z,1.85
2023-01-13T10:06:22.803Z,3.40
2023-01-13T10:08:30.973Z,4.72
2023-01-13T10:10:41.189Z,3.42
2023-01-13T10:13:03.330Z,2.83
2023-01-13T10:15:16.795Z,2.60
2023-01-13T10:17:28.787Z,2.30
2023-01-13T10:19:38.995Z,5.68
2023-01-13T10:22:22.189Z,4.35
2023-01-13T10:24:42.801Z,4.43
2023-01-13T10:27:01.816Z,5.63
2023-01-13T10:29:21.624Z,4.43
2023-01-13T10:31:29.195Z,2.33
2023-01-13T10:33:34.505Z,6.32
2023-01-13T10:35:57.821Z,3.08
2023-01-13T10:38:05.370Z,6.80
2023-01-13T10:40:20.996Z,6.10
2023-01-13T10:42:27.422Z,4.47
2023-01-13T10:44:32.563Z,8.82
2023-01-13T10:46:54.702Z,3.85
2023-01-13T10:49:02.596Z,7.00
2023-01-13T10:51:30.919Z,5.65
2023-01-13T10:53:49.608Z,6.63
2023-01-13T10:56:07.107Z,2.58
2023-01-13T10:58:16.891Z,7.75
2023-01-13T11:00:31.739Z,7.63
2023-01-13T11:02:38.725Z,3.65
2023-01-13T11:05:05.326Z,4.82
2023-01-13T11:07:28.399Z,3.47
2023-01-13T11:09:36.804Z,6.85
2023-01-13T11:11:47.398Z,7.22
2023-01-13T11:14:17.391Z,5.38
2023-01-13T11:16:22.645Z,6.20
2023-01-13T11:18:40.340Z,4.82
2023-01-13T11:20:49.088Z,5.28
2023-01-13T11:22:57.621Z,10.73
2023-01-13T11:25:08.374Z,7.72
2023-01-13T11:27:20.402Z,3.83
2023-01-13T11:29:33.562Z,8.05
2023-01-13T11:33:52.892Z,5.03
2023-01-13T11:36:09.183Z,8.07
2023-01-13T11:38:31.019Z,7.63
2023-01-13T11:40:44.206Z,7.35
2023-01-13T11:45:13.004Z,6.13
2023-01-13T11:47:28.747Z,4.93
2023-01-13T11:49:37.528Z,8.23
2023-01-13T11:51:51.616Z,8.73
2023-01-13T11:54:22.531Z,6.18
2023-01-13T11:56:50.616Z,12.77
2023-01-13T11:59:28.194Z,6.38
2023-01-13T12:01:59.172Z,4.88
2023-01-13T12:04:24.007Z,5.25
2023-01-13T12:06:38.058Z,9.70
2023-01-13T12:09:14.055Z,3.58
2023-01-13T12:11:28.474Z,7.80
2023-01-13T12:13:48.960Z,3.58
2023-01-13T12:16:25.903Z,8.13
2023-01-13T12:19:02.658Z,8.35
2023-01-13T12:21:22.543Z,5.82
2023-01-13T12:23:36.234Z,9.10
2023-01-13T12:25:47.043Z,8.73
2023-01-13T12:28:00.839Z,10.70
2023-01-13T12:30:25.831Z,10.15
2023-01-13T12:32:42.747Z,8.15
2023-01-13T12:35:06.632Z,4.93
2023-01-13T12:37:23.019Z,8.93
2023-01-13T12:39:43.676Z,7.20
2023-01-13T12:42:08.137Z,8.82
2023-01-13T12:44:20.768Z,10.95
2023-01-13T12:46:56.264Z,4.70
2023-01-13T12:49:23.986Z,9.00
2023-01-13T12:51:33.150Z,7.43
2023-01-13T12:53:39.398Z,13.60
2023-01-13T12:55:44.730Z,5.72
2023-01-13T12:58:17.934Z,10.50
2023-01-13T13:00:24.547Z,8.23
2023-01-13T13:02:38.408Z,6.57
2023-01-13T13:04:49.544Z,11.57
2023-01-13T13:07:07.404Z,9.27
2023-01-13T13:09:26.364Z,7.75
2023-01-13T13:11:57.510Z,5.38
2023-01-13T13:14:03.899Z,5.57
2023-01-13T13:17:01.115Z,5.15
2023-01-13T13:19:48.579Z,8.45
2023-01-13T13:22:40.791Z,8.55
2023-01-13T13:25:07.161Z,9.68
2023-01-13T13:27:21.062Z,6.43
2023-01-13T13:29:49.782Z,8.65
2023-01-13T13:32:34.039Z,7.93
2023-01-13T13:34:52.552Z,6.32
2023-01-13T13:37:18.695Z,8.70
2023-01-13T13:39:40.086Z,8.88
2023-01-13T13:42:02.119Z,6.70
2023-01-13T13:44:32.636Z,7.20
2023-01-13T13:46:50.782Z,10.98
2023-01-13T13:48:58.623Z,5.82
2023-01-13T13:51:27.955Z,6.22
2023-01-13T13:53:37.300Z,6.13
2023-01-13T13:55:42.353Z,5.93
2023-01-13T13:57:50.118Z,10.80
2023-01-13T13:59:58.605Z,6.78
2023-01-13T14:02:04.614Z,8.95
2023-01-13T14:04:18.019Z,6.78
2023-01-13T14:06:26.952Z,10.00
2023-01-13T14:08:34.092Z,11.48
2023-01-13T14:10:41.650Z,9.00
2023-01-13T14:12:46.492Z,8.90
2023-01-13T14:14:54.531Z,11.23
2023-01-13T14:16:59.612Z,8.23
2023-01-13T14:19:04.511Z,6.47
2023-01-13T14:21:27.938Z,10.50
2023-01-13T14:23:37.312Z,10.88
2023-01-13T14:25:50.627Z,8.38
2023-01-13T14:27:56.105Z,9.35
2023-01-13T14:30:03.760Z,8.25
2023-01-13T14:32:10.928Z,10.50
2023-01-13T14:34:31.683Z,11.27
2023-01-13T14:36:47.874Z,8.90
2023-01-13T14:39:27.290Z,6.82
2023-01-13T14:41:36.990Z,10.02
2023-01-13T14:43:46.683Z,10.00
2023-01-13T14:46:02.966Z,13.77
2023-01-13T14:48:11.959Z,11.25
2023-01-13T14:50:28.156Z,6.15
2023-01-13T14:52:38.958Z,6.38
2023-01-13T14:54:50.468Z,8.20
2023-01-13T14:56:55.875Z,7.75
2023-01-13T14:59:04.996Z,8.15
2023-01-13T15:01:30.997Z,6.00
2023-01-13T15:03:43.964Z,8.30
2023-01-13T15:05:51.419Z,7.32
2023-01-13T15:08:03.450Z,9.18
2023-01-13T15:10:17.342Z,5.03
2023-01-13T15:12:33.648Z,7.72
2023-01-13T15:14:39.276Z,6.88
2023-01-13T15:16:44.690Z,10.18
2023-01-13T15:18:50.220Z,10.45
2023-01-13T15:20:55.945Z,10.68
2023-01-13T15:23:03.650Z,6.50
2023-01-13T15:25:10.359Z,10.40
2023-01-13T15:27:22.520Z,8.55
2023-01-13T15:29:28.761Z,13.68
2023-01-13T15:31:34.139Z,6.22
2023-01-13T15:33:39.206Z,8.93
2023-01-13T15:35:48.680Z,7.43
2023-01-13T15:37:54.373Z,4.32
2023-01-13T15:40:01.785Z,9.82
2023-01-13T15:42:19.578Z,6.00
2023-01-13T15:44:37.120Z,12.85
2023-01-13T15:46:42.020Z,8.05
2023-01-13T15:48:50.619Z,6.78
2023-01-13T15:50:58.249Z,4.78
2023-01-13T15:53:03.773Z,6.22
2023-01-13T15:55:12.566Z,4.78
2023-01-13T15:57:24.227Z,5.32
2023-01-13T15:59:30.558Z,9.32
2023-01-13T16:01:35.443Z,12.15
2023-01-13T16:03:40.661Z,9.02
2023-01-13T16:05:46.974Z,7.72
2023-01-13T16:07:51.831Z,11.32
2023-01-13T16:09:57.390Z,10.48
2023-01-13T16:12:04.833Z,13.13
2023-01-13T16:14:09.788Z,8.20
2023-01-13T16:16:24.645Z,7.20
2023-01-13T16:18:29.664Z,6.93
2023-01-13T16:20:35.627Z,6.70
2023-01-13T16:22:40.457Z,9.02
2023-01-13T16:24:46.084Z,7.85
2023-01-13T16:26:51.242Z,8.55
2023-01-13T16:29:00.825Z,9.10
2023-01-13T16:31:26.696Z,9.48
2023-01-13T16:33:31.952Z,10.80
2023-01-13T16:35:37.371Z,8.95
2023-01-13T16:38:02.592Z,8.05
2023-01-13T16:40:08.933Z,10.77
2023-01-13T16:42:13.788Z,8.57
2023-01-13T16:44:22.735Z,10.43
2023-01-13T16:46:30.214Z,8.77
2023-01-13T16:48:35.466Z,11.60
2023-01-13T16:50:44.473Z,10.23
2023-01-13T16:52:49.329Z,9.27
2023-01-13T16:54:54.772Z,10.50
2023-01-13T16:57:00.089Z,12.82
2023-01-13T16:59:10.241Z,11.82
2023-01-13T17:01:26.068Z,13.43
2023-01-13T17:03:35.180Z,9.77
2023-01-13T17:05:43.531Z,11.77
2023-01-13T17:07:50.741Z,12.90
2023-01-13T17:09:55.587Z,9.13
2023-01-13T17:12:01.000Z,6.13
2023-01-13T17:14:18.564Z,12.98
2023-01-13T17:16:28.303Z,7.80
2023-01-13T17:18:33.880Z,9.30
2023-01-13T17:20:38.748Z,10.15
2023-01-13T17:22:47.515Z,12.50
2023-01-13T17:24:54.688Z,12.60
2023-01-13T17:26:59.545Z,11.75
2023-01-13T17:29:04.953Z,10.73
2023-01-13T17:31:09.786Z,9.13
2023-01-13T17:33:18.055Z,8.40
2023-01-13T17:35:24.844Z,11.30
2023-01-13T17:37:30.358Z,9.85
2023-01-13T17:39:35.578Z,7.05
2023-01-13T17:41:40.421Z,12.20
2023-01-13T17:43:46.082Z,11.93
2023-01-13T17:45:51.398Z,9.80
2023-01-13T17:48:00.066Z,12.43
2023-01-13T17:50:10.799Z,6.97
2023-01-13T17:52:15.983Z,10.27
2023-01-13T17:54:21.555Z,8.60
2023-01-13T17:56:27.630Z,13.43
2023-01-13T17:58:32.547Z,15.05
2023-01-13T18:00:37.372Z,14.82
2023-01-13T18:02:42.798Z,12.25
2023-01-13T18:04:48.336Z,8.80
2023-01-13T18:06:56.895Z,11.52
2023-01-13T18:09:03.473Z,12.30
2023-01-13T18:11:08.546Z,8.98
2023-01-13T18:13:13.403Z,7.60
2023-01-13T18:15:18.734Z,10.45
2023-01-13T18:17:23.653Z,10.07
2023-01-13T18:19:41.894Z,14.45
2023-01-13T18:21:59.654Z,15.48
2023-01-13T18:24:25.686Z,12.77
2023-01-13T18:26:43.685Z,11.05
2023-01-13T18:28:48.550Z,9.07
2023-01-13T18:30:53.481Z,9.38
2023-01-13T18:32:58.334Z,13.75
2023-01-13T18:35:06.948Z,12.45
2023-01-13T18:37:14.192Z,8.50
2023-01-13T18:39:21.760Z,12.05
2023-01-13T18:41:39.285Z,15.02
2023-01-13T18:43:44.100Z,11.18
2023-01-13T18:45:54.410Z,10.52
2023-01-13T18:48:02.343Z,13.38
2023-01-13T18:50:09.180Z,9.45
2023-01-13T18:52:14.105Z,13.90
2023-01-13T18:54:21.858Z,10.80
2023-01-13T18:56:26.717Z,16.00
2023-01-13T18:58:33.110Z,9.38
2023-01-13T19:00:38.171Z,9.30
2023-01-13T19:02:43.686Z,14.93
2023-01-13T19:04:49.108Z,10.25
2023-01-13T19:07:00.137Z,10.43
2023-01-13T19:09:08.791Z,10.35
2023-01-13T19:11:16.628Z,14.52
2023-01-13T19:13:21.989Z,12.13
2023-01-13T19:15:27.022Z,8.43
2023-01-13T19:17:35.277Z,11.18
2023-01-13T19:19:44.025Z,12.63
2023-01-13T19:21:48.837Z,17.77
2023-01-13T19:23:56.533Z,12.68
2023-01-13T19:26:02.588Z,10.70
2023-01-13T19:28:10.296Z,10.82
2023-01-13T19:30:17.404Z,8.80
2023-01-13T19:32:23.820Z,10.90
2023-01-13T19:34:28.929Z,13.13
2023-01-13T19:36:33.755Z,13.93
2023-01-13T19:38:40.654Z,9.73
2023-01-13T19:40:45.500Z,11.82
2023-01-13T19:43:03.071Z,10.57
2023-01-13T19:45:36.656Z,11.52
2023-01-13T19:47:41.888Z,14.73
2023-01-13T19:49:47.196Z,11.07
2023-01-13T19:51:53.544Z,8.23
2023-01-13T19:53:59.160Z,9.88
2023-01-13T19:56:04.199Z,15.25
2023-01-13T19:58:09.291Z,14.93
2023-01-13T20:00:20.749Z,9.02
2023-01-13T20:02:31.714Z,9.30
2023-01-13T20:04:38.415Z,9.43
2023-01-13T20:06:43.308Z,12.15
2023-01-13T20:08:48.572Z,6.18
2023-01-13T20:11:13.404Z,16.10
2023-01-13T20:13:18.762Z,21.17
2023-01-13T20:15:26.471Z,11.73
2023-01-13T20:17:31.352Z,14.30
2023-01-13T20:19:36.364Z,10.65
2023-01-13T20:21:41.620Z,15.50
2023-01-13T20:23:46.885Z,8.50
2023-01-13T20:25:51.912Z,10.98
2023-01-13T20:27:57.717Z,9.93
2023-01-13T20:30:02.592Z,14.00
2023-01-13T20:32:10.458Z,12.15
2023-01-13T20:34:15.500Z,8.75
2023-01-13T20:36:31.433Z,6.32
2023-01-13T20:38:39.624Z,12.82
2023-01-13T20:40:44.465Z,11.15
2023-01-13T20:42:47.113Z,11.70
2023-01-13T20:44:51.945Z,11.77
2023-01-13T20:46:57.881Z,14.25
2023-01-13T20:49:05.310Z,14.23
2023-01-13T20:51:10.347Z,11.30
2023-01-13T20:53:15.237Z,14.30
2023-01-13T20:55:20.304Z,15.00
2023-01-13T20:57:25.572Z,14.30
2023-01-13T20:59:30.376Z,17.75
2023-01-13T21:01:35.904Z,20.92
2023-01-13T21:03:40.963Z,16.15
2023-01-13T21:05:48.667Z,13.68
2023-01-13T21:07:53.585Z,16.10
2023-01-13T21:09:58.500Z,8.77
2023-01-13T21:12:16.037Z,12.50
2023-01-13T21:14:37.395Z,9.40
2023-01-13T21:16:42.346Z,9.18
2023-01-13T21:18:59.826Z,11.88
2023-01-13T21:21:14.132Z,14.85
2023-01-13T21:23:19.461Z,12.73
2023-01-13T21:25:24.571Z,7.35
2023-01-13T21:27:29.677Z,11.50
2023-01-13T21:29:34.619Z,14.95
2023-01-13T21:31:40.679Z,10.60
2023-01-13T21:33:48.268Z,11.80
2023-01-13T21:35:53.677Z,17.17
2023-01-13T21:38:01.275Z,7.55
2023-01-13T21:40:07.525Z,7.20
2023-01-13T21:42:34.188Z,10.70
2023-01-13T21:44:51.789Z,9.68
2023-01-13T21:47:10.117Z,8.20
2023-01-13T21:49:15.225Z,8.52
2023-01-13T21:51:22.843Z,16.50
2023-01-13T21:53:31.032Z,13.95
2023-01-13T21:55:36.783Z,12.30
2023-01-13T21:57:43.288Z,5.63
2023-01-13T21:59:48.599Z,5.95
2023-01-13T22:02:00.192Z,7.50
2023-01-13T22:04:22.307Z,7.68
2023-01-13T22:06:28.027Z,9.35
2023-01-13T22:08:35.834Z,9.27
2023-01-13T22:10:57.084Z,10.35
2023-01-13T22:13:25.509Z,4.40
2023-01-13T22:15:32.391Z,6.57
2023-01-13T22:17:37.388Z,7.85
2023-01-13T22:19:42.384Z,12.20
2023-01-13T22:21:47.291Z,11.73
2023-01-13T22:23:54.820Z,8.85
2023-01-13T22:26:04.043Z,10.98
2023-01-13T22:28:09.406Z,7.30
2023-01-13T22:30:18.487Z,7.88
2023-01-13T22:32:24.014Z,9.38
2023-01-13T22:34:28.966Z,8.88
2023-01-13T22:36:33.873Z,8.48
2023-01-13T22:38:39.104Z,13.57
2023-01-13T22:40:46.603Z,15.45
2023-01-13T22:42:51.537Z,12.50
2023-01-13T22:44:56.481Z,10.35
2023-01-13T22:47:01.429Z,9.32
2023-01-13T22:49:06.883Z,12.75
2023-01-13T22:51:14.104Z,16.00
2023-01-13T22:53:19.040Z,14.73
2023-01-13T22:55:24.004Z,14.52
2023-01-13T22:57:47.255Z,11.88
2023-01-13T22:59:52.873Z,10.50
2023-01-13T23:01:57.885Z,9.63
2023-01-13T23:04:03.406Z,16.05
2023-01-13T23:06:08.626Z,15.52
2023-01-13T23:08:14.597Z,11.70
2023-01-13T23:10:20.321Z,13.75
2023-01-13T23:12:25.308Z,13.10
2023-01-13T23:14:33.053Z,15.00
2023-01-13T23:16:40.326Z,11.75
2023-01-13T23:18:47.984Z,23.17
2023-01-13T23:20:52.880Z,13.65
2023-01-13T23:22:59.139Z,13.88
2023-01-13T23:25:04.453Z,19.38
2023-01-13T23:27:09.415Z,21.85
2023-01-13T23:29:16.132Z,17.52
2023-01-13T23:31:25.112Z,14.38
2023-01-13T23:33:30.236Z,12.82
2023-01-13T23:35:35.431Z,14.57
2023-01-13T23:37:40.441Z,22.08
2023-01-13T23:39:45.424Z,23.55
2023-01-13T23:41:51.136Z,17.50
2023-01-13T23:43:58.139Z,13.30
2023-01-13T23:46:09.259Z,11.55
2023-01-13T23:48:18.667Z,17.17
2023-01-13T23:50:25.087Z,13.38
2023-01-13T23:52:30.010Z,15.68
2023-01-13T23:54:34.945Z,12.85
2023-01-13T23:56:39.957Z,15.50
2023-01-13T23:58:45.657Z,17.58
